createdAt,value
2022-08-26T00:02:06.437Z,5.05
2022-08-26T00:04:33.541Z,6.85
2022-08-26T00:07:00.452Z,7.65
2022-08-26T00:09:37.195Z,4.78
2022-08-26T00:12:08.988Z,5.75
2022-08-26T00:14:38.365Z,8.15
2022-08-26T00:17:05.483Z,8.80
2022-08-26T00:19:35.914Z,5.88
2022-08-26T00:22:02.990Z,5.63
2022-08-26T00:24:32.097Z,6.30
2022-08-26T00:26:58.847Z,4.50
2022-08-26T00:29:25.788Z,8.68
2022-08-26T00:31:56.561Z,7.32
2022-08-26T00:34:23.523Z,6.07
2022-08-26T00:36:52.720Z,8.23
2022-08-26T00:39:19.970Z,5.68
2022-08-26T00:41:47.832Z,5.35
2022-08-26T00:44:14.578Z,6.30
2022-08-26T00:46:46.928Z,6.93
2022-08-26T00:49:23.810Z,7.75
2022-08-26T00:51:53.377Z,7.18
2022-08-26T00:54:27.055Z,6.68
2022-08-26T00:57:16.082Z,7.35
2022-08-26T00:59:56.707Z,5.53
2022-08-26T01:02:26.464Z,6.40
2022-08-26T01:05:00.741Z,6.35
2022-08-26T01:07:31.353Z,5.28
2022-08-26T01:10:01.294Z,6.13
2022-08-26T01:12:37.991Z,5.03
2022-08-26T01:15:09.388Z,9.15
2022-08-26T01:17:38.251Z,5.85
2022-08-26T01:20:26.781Z,6.13
2022-08-26T01:23:06.126Z,6.43
2022-08-26T01:25:46.132Z,6.80
2022-08-26T01:28:23.279Z,6.72
2022-08-26T01:30:52.599Z,5.35
2022-08-26T01:33:27.788Z,7.25
2022-08-26T01:35:55.611Z,6.75
2022-08-26T01:38:23.802Z,6.95
2022-08-26T01:40:50.617Z,10.23
2022-08-26T01:43:22.251Z,7.40
2022-08-26T01:45:54.251Z,6.53
2022-08-26T01:48:28.091Z,6.25
2022-08-26T01:50:56.669Z,7.13
2022-08-26T01:53:26.690Z,5.43
2022-08-26T01:55:59.476Z,6.35
2022-08-26T01:58:33.585Z,5.38
2022-08-26T02:01:02.562Z,7.70
2022-08-26T02:03:30.122Z,7.43
2022-08-26T02:06:03.035Z,6.45
2022-08-26T02:08:43.987Z,7.85
2022-08-26T02:11:11.551Z,6.55
2022-08-26T02:13:46.615Z,7.82
2022-08-26T02:16:16.988Z,7.28
2022-08-26T02:18:46.928Z,6.95
2022-08-26T02:21:16.510Z,11.32
2022-08-26T02:23:47.963Z,10.32
2022-08-26T02:26:19.364Z,6.97
2022-08-26T02:28:56.731Z,7.47
2022-08-26T02:31:24.984Z,10.60
2022-08-26T02:33:52.237Z,8.40
2022-08-26T02:36:21.662Z,8.13
2022-08-26T02:38:52.108Z,7.70
2022-08-26T02:41:18.799Z,6.32
2022-08-26T02:43:45.490Z,7.20
2022-08-26T02:46:12.366Z,8.98
2022-08-26T02:48:50.353Z,7.93
2022-08-26T02:51:17.440Z,7.18
2022-08-26T02:53:44.484Z,12.98
2022-08-26T02:56:11.319Z,7.68
2022-08-26T02:58:38.010Z,6.15
2022-08-26T03:01:05.471Z,5.93
2022-08-26T03:03:33.322Z,10.43
2022-08-26T03:06:00.442Z,8.40
2022-08-26T03:08:27.341Z,9.00
2022-08-26T03:10:53.990Z,6.22
2022-08-26T03:13:20.646Z,7.28
2022-08-26T03:15:47.649Z,6.43
2022-08-26T03:18:16.686Z,7.00
2022-08-26T03:20:43.904Z,8.27
2022-08-26T03:23:14.057Z,6.43
2022-08-26T03:26:07.055Z,7.63
2022-08-26T03:29:00.858Z,8.27
2022-08-26T03:31:35.476Z,9.77
2022-08-26T03:34:04.620Z,6.00
2022-08-26T03:36:33.764Z,7.40
2022-08-26T03:39:02.348Z,7.20
2022-08-26T03:41:31.858Z,9.82
2022-08-26T03:44:01.522Z,6.50
2022-08-26T03:49:01.619Z,9.00
2022-08-26T03:51:28.900Z,6.68
2022-08-26T03:53:55.633Z,8.65
2022-08-26T03:56:24.006Z,7.60
2022-08-26T03:58:53.904Z,8.85
2022-08-26T04:01:20.829Z,8.55
2022-08-26T04:03:57.126Z,8.23
2022-08-26T04:06:33.604Z,9.98
2022-08-26T04:09:04.549Z,6.85
2022-08-26T04:11:34.785Z,10.85
2022-08-26T04:14:13.717Z,9.27
2022-08-26T04:16:44.088Z,7.72
2022-08-26T04:19:12.852Z,9.52
2022-08-26T04:21:40.675Z,8.77
2022-08-26T04:24:17.631Z,11.88
2022-08-26T04:26:44.625Z,7.72
2022-08-26T04:29:18.141Z,8.68
2022-08-26T04:31:47.249Z,8.65
2022-08-26T04:34:20.043Z,8.15
2022-08-26T04:36:47.064Z,6.70
2022-08-26T04:39:16.219Z,9.73
2022-08-26T04:41:47.670Z,7.63
2022-08-26T04:44:16.200Z,8.27
2022-08-26T04:46:44.504Z,9.02
2022-08-26T04:49:12.430Z,11.13
2022-08-26T04:51:45.457Z,8.55
2022-08-26T04:54:20.453Z,8.55
2022-08-26T04:56:48.836Z,9.40
2022-08-26T04:59:18.224Z,7.47
2022-08-26T05:01:48.368Z,12.07
2022-08-26T05:04:16.254Z,15.63
2022-08-26T05:06:46.848Z,10.95
2022-08-26T05:09:15.328Z,8.95
2022-08-26T05:11:42.314Z,7.93
2022-08-26T05:14:09.345Z,10.10
2022-08-26T05:16:43.672Z,7.95
2022-08-26T05:19:15.934Z,7.95
2022-08-26T05:21:50.561Z,8.52
2022-08-26T05:24:20.405Z,9.23
2022-08-26T05:26:48.148Z,8.55
2022-08-26T05:29:15.811Z,7.47
2022-08-26T05:31:46.182Z,10.55
2022-08-26T05:34:15.081Z,12.00
2022-08-26T05:36:42.046Z,7.78
2022-08-26T05:39:11.954Z,6.78
2022-08-26T05:41:42.126Z,12.23
2022-08-26T05:44:53.829Z,8.57
2022-08-26T05:47:20.236Z,7.35
2022-08-26T05:49:51.689Z,7.88
2022-08-26T05:52:19.022Z,6.80
2022-08-26T05:54:47.040Z,8.38
2022-08-26T05:57:14.834Z,6.68
2022-08-26T05:59:41.554Z,9.38
2022-08-26T06:02:08.937Z,7.70
2022-08-26T06:04:35.667Z,11.85
2022-08-26T06:07:07.624Z,7.13
2022-08-26T06:09:42.251Z,11.68
2022-08-26T06:12:10.451Z,11.07
2022-08-26T06:14:37.132Z,11.10
2022-08-26T06:17:09.616Z,7.97
2022-08-26T06:22:46.729Z,9.30
2022-08-26T06:25:31.989Z,9.57
2022-08-26T06:27:59.302Z,11.63
2022-08-26T06:30:30.378Z,8.95
2022-08-26T06:33:00.351Z,11.80
2022-08-26T06:41:37.315Z,10.25
2022-08-26T06:44:44.737Z,7.10
2022-08-26T06:47:12.113Z,11.32
2022-08-26T06:49:44.279Z,10.65
2022-08-26T06:52:42.944Z,9.90
2022-08-26T06:55:18.526Z,8.10
2022-08-26T06:57:46.070Z,7.57
2022-08-26T07:00:14.680Z,7.90
2022-08-26T07:02:46.188Z,6.55
2022-08-26T07:07:43.242Z,6.00
2022-08-26T07:10:12.744Z,8.52
2022-08-26T07:12:39.522Z,5.95
2022-08-26T07:15:11.555Z,10.73
2022-08-26T07:18:11.336Z,7.45
2022-08-26T07:20:42.250Z,10.00
2022-08-26T07:23:12.137Z,8.15
2022-08-26T07:25:50.569Z,9.30
2022-08-26T07:28:25.265Z,6.95
2022-08-26T07:30:53.595Z,9.55
2022-08-26T07:33:22.868Z,8.70
2022-08-26T07:35:49.790Z,8.05
2022-08-26T07:38:17.410Z,10.23
2022-08-26T07:41:12.491Z,8.23
2022-08-26T07:43:39.706Z,6.60
2022-08-26T07:46:07.955Z,5.75
2022-08-26T07:48:39.006Z,8.10
2022-08-26T07:51:10.529Z,8.93
2022-08-26T07:53:48.077Z,6.50
2022-08-26T07:56:22.494Z,6.63
2022-08-26T07:58:54.569Z,9.48
2022-08-26T08:01:23.690Z,10.90
2022-08-26T08:03:52.543Z,10.25
2022-08-26T08:06:27.212Z,12.45
2022-08-26T08:08:56.370Z,9.27
2022-08-26T08:11:23.631Z,10.32
2022-08-26T08:13:56.162Z,9.30
2022-08-26T08:16:28.463Z,7.20
2022-08-26T08:18:59.248Z,6.80
2022-08-26T08:21:28.963Z,10.48
2022-08-26T08:23:57.724Z,12.88
2022-08-26T08:26:25.523Z,8.73
2022-08-26T08:29:00.154Z,9.18
2022-08-26T08:34:21.538Z,9.48
2022-08-26T08:36:53.389Z,8.15
2022-08-26T08:39:22.012Z,9.93
2022-08-26T08:42:10.259Z,10.57
2022-08-26T08:44:52.001Z,12.07
2022-08-26T08:50:53.248Z,9.93
2022-08-26T08:53:33.453Z,8.02
2022-08-26T08:56:23.762Z,7.43
2022-08-26T08:59:16.112Z,9.82
2022-08-26T09:02:16.067Z,12.25
2022-08-26T09:05:39.304Z,7.63
2022-08-26T09:08:11.625Z,9.15
2022-08-26T09:10:50.049Z,8.13
2022-08-26T09:13:24.942Z,8.90
2022-08-26T09:19:32.796Z,9.35
2022-08-26T09:22:01.631Z,13.97
2022-08-26T09:24:38.417Z,9.30
2022-08-26T09:27:51.393Z,8.55
2022-08-26T09:30:32.242Z,8.73
2022-08-26T09:33:01.721Z,9.27
2022-08-26T09:35:46.488Z,10.77
2022-08-26T09:38:37.808Z,8.68
2022-08-26T09:41:20.267Z,9.40
2022-08-26T09:44:16.929Z,12.18
2022-08-26T09:55:22.369Z,10.65
2022-08-26T10:00:26.941Z,10.15
2022-08-26T10:03:33.734Z,7.38
2022-08-26T10:06:25.750Z,8.05
2022-08-26T10:09:03.602Z,6.75
2022-08-26T10:11:49.984Z,7.50
2022-08-26T10:21:18.009Z,8.05
2022-08-26T10:27:03.433Z,7.00
2022-08-26T10:29:43.381Z,8.90
2022-08-26T10:35:16.787Z,13.52
2022-08-26T10:40:49.147Z,11.48
2022-08-26T10:43:36.741Z,12.23
2022-08-26T10:49:14.780Z,8.80
2022-08-26T10:52:24.235Z,8.77
2022-08-26T10:55:15.031Z,10.50
2022-08-26T10:57:53.228Z,9.40
2022-08-26T11:00:56.837Z,14.55
2022-08-26T11:04:02.129Z,11.05
2022-08-26T11:06:30.639Z,11.88
2022-08-26T11:09:03.409Z,12.02
2022-08-26T11:11:50.897Z,12.88
2022-08-26T11:14:28.446Z,6.75
2022-08-26T11:16:58.086Z,10.10
2022-08-26T11:19:59.599Z,7.47
2022-08-26T11:22:34.848Z,10.48
2022-08-26T11:25:12.852Z,7.78
2022-08-26T11:27:40.841Z,6.43
2022-08-26T11:30:18.573Z,8.52
2022-08-26T11:32:56.560Z,8.90
2022-08-26T11:35:23.793Z,6.55
2022-08-26T11:37:57.488Z,12.15
2022-08-26T11:40:56.946Z,8.82
2022-08-26T11:43:37.212Z,8.57
2022-08-26T11:46:17.658Z,9.48
2022-08-26T11:48:45.513Z,6.50
2022-08-26T11:51:24.237Z,13.23
2022-08-26T11:54:18.083Z,7.22
2022-08-26T11:56:59.966Z,6.00
2022-08-26T11:59:40.240Z,5.20
2022-08-26T12:02:16.667Z,10.43
2022-08-26T12:04:48.834Z,5.63
2022-08-26T12:07:23.971Z,7.65
2022-08-26T12:10:00.443Z,8.35
2022-08-26T12:12:34.960Z,12.48
2022-08-26T12:15:22.229Z,10.05
2022-08-26T12:17:53.544Z,12.10
2022-08-26T12:21:00.697Z,8.40
2022-08-26T12:23:37.454Z,12.95
2022-08-26T12:26:07.046Z,10.35
2022-08-26T12:28:42.853Z,6.30
2022-08-26T12:31:20.805Z,8.07
2022-08-26T12:33:51.691Z,9.35
2022-08-26T12:36:33.798Z,11.00
2022-08-26T12:39:14.140Z,10.88
2022-08-26T12:41:53.119Z,8.48
2022-08-26T12:44:37.009Z,7.28
2022-08-26T12:47:10.042Z,8.88
2022-08-26T12:49:38.872Z,10.52
2022-08-26T12:52:08.845Z,5.70
2022-08-26T12:54:56.825Z,6.63
2022-08-26T12:57:30.727Z,9.10
2022-08-26T13:00:35.229Z,8.38
2022-08-26T13:03:02.151Z,7.85
2022-08-26T13:05:34.887Z,10.63
2022-08-26T13:08:15.198Z,8.10
2022-08-26T13:11:04.885Z,7.72
2022-08-26T13:13:45.620Z,8.88
2022-08-26T13:16:15.934Z,15.68
2022-08-26T13:18:52.296Z,4.35
2022-08-26T13:21:28.721Z,7.25
2022-08-26T13:24:11.487Z,11.57
2022-08-26T13:26:40.050Z,6.63
2022-08-26T13:29:10.482Z,14.05
2022-08-26T13:31:40.300Z,15.00
2022-08-26T13:34:09.803Z,9.30
2022-08-26T13:36:36.652Z,5.50
2022-08-26T13:39:04.683Z,11.07
2022-08-26T13:41:31.908Z,5.97
2022-08-26T13:44:04.316Z,4.15
2022-08-26T13:46:31.502Z,8.40
2022-08-26T13:49:00.498Z,6.82
2022-08-26T13:51:27.942Z,5.18
2022-08-26T13:54:00.718Z,5.65
2022-08-26T13:56:28.822Z,5.57
2022-08-26T13:59:00.608Z,5.00
2022-08-26T14:01:32.373Z,9.27
2022-08-26T14:04:01.771Z,5.38
2022-08-26T14:06:47.751Z,4.50
2022-08-26T14:13:02.598Z,6.30
2022-08-26T14:15:50.222Z,20.77
2022-08-26T14:18:52.451Z,11.75
2022-08-26T14:21:21.045Z,5.93
2022-08-26T14:23:48.192Z,9.38
2022-08-26T14:26:30.012Z,4.55
2022-08-26T14:29:20.929Z,9.00
2022-08-26T14:31:55.306Z,4.72
2022-08-26T14:34:26.211Z,8.13
2022-08-26T14:37:07.784Z,5.50
2022-08-26T14:40:10.782Z,14.52
2022-08-26T14:43:10.819Z,20.60
2022-08-26T14:46:04.245Z,19.95
2022-08-26T14:48:40.210Z,9.93
2022-08-26T14:51:17.559Z,11.88
2022-08-26T14:54:14.857Z,11.27
2022-08-26T14:56:53.700Z,7.15
2022-08-26T14:59:28.446Z,13.82
2022-08-26T15:02:07.985Z,13.13
2022-08-26T15:05:09.596Z,11.13
2022-08-26T15:07:39.649Z,6.17
2022-08-26T15:10:19.937Z,13.32
2022-08-26T15:13:00.191Z,13.70
2022-08-26T15:15:52.037Z,9.23
2022-08-26T15:18:51.088Z,7.85
2022-08-26T15:21:43.250Z,9.35
2022-08-26T15:24:26.606Z,13.27
2022-08-26T15:27:05.913Z,10.75
2022-08-26T15:29:48.596Z,10.77
2022-08-26T15:33:04.833Z,8.65
2022-08-26T15:35:33.089Z,9.77
2022-08-26T15:38:13.109Z,10.73
2022-08-26T15:40:42.733Z,9.38
2022-08-26T15:43:25.534Z,9.27
2022-08-26T15:45:56.237Z,8.05
2022-08-26T15:48:24.877Z,9.60
2022-08-26T15:50:56.557Z,10.50
2022-08-26T15:55:56.436Z,10.88
2022-08-26T15:58:30.784Z,12.70
2022-08-26T16:00:57.801Z,13.05
2022-08-26T16:03:26.739Z,6.65
2022-08-26T16:05:55.486Z,4.63
2022-08-26T16:08:26.355Z,12.77
2022-08-26T16:10:56.725Z,8.38
2022-08-26T16:13:23.753Z,6.93
2022-08-26T16:15:55.698Z,4.80
2022-08-26T16:18:27.124Z,8.60
2022-08-26T16:20:55.369Z,9.70
2022-08-26T16:24:04.719Z,6.97
2022-08-26T16:26:34.379Z,6.33
2022-08-26T16:29:09.194Z,8.90
2022-08-26T16:31:37.207Z,13.30
2022-08-26T16:34:06.600Z,6.22
2022-08-26T16:36:37.398Z,10.45
2022-08-26T16:39:05.631Z,9.88
2022-08-26T16:41:37.327Z,24.02
2022-08-26T16:44:05.613Z,37.42
2022-08-26T16:46:34.171Z,24.33
2022-08-26T16:49:03.728Z,39.83
2022-08-26T16:51:37.932Z,23.17
2022-08-26T16:54:09.995Z,30.27
2022-08-26T16:56:39.420Z,17.92
2022-08-26T16:59:10.799Z,19.60
2022-08-26T17:01:41.058Z,17.38
2022-08-26T17:04:08.010Z,24.05
2022-08-26T17:06:37.415Z,15.15
2022-08-26T17:09:08.583Z,7.70
2022-08-26T17:11:46.195Z,11.95
2022-08-26T17:14:13.112Z,8.75
2022-08-26T17:16:39.820Z,11.85
2022-08-26T17:19:07.395Z,6.85
2022-08-26T17:21:35.567Z,10.80
2022-08-26T17:24:06.201Z,13.73
2022-08-26T17:26:37.013Z,10.23
2022-08-26T17:29:06.608Z,11.25
2022-08-26T17:31:34.234Z,10.82
2022-08-26T17:34:01.491Z,12.07
2022-08-26T17:36:37.261Z,14.45
2022-08-26T17:39:06.602Z,9.65
2022-08-26T17:44:12.502Z,13.65
2022-08-26T17:46:39.735Z,13.48
2022-08-26T17:49:06.669Z,13.63
2022-08-26T17:51:35.698Z,8.43
2022-08-26T17:54:08.245Z,12.27
2022-08-26T17:56:46.714Z,12.88
2022-08-26T17:59:13.436Z,11.60
2022-08-26T18:01:44.513Z,10.60
2022-08-26T18:04:36.480Z,8.20
2022-08-26T18:07:04.553Z,12.98
2022-08-26T18:09:36.010Z,9.30
2022-08-26T18:12:39.567Z,9.15
2022-08-26T18:20:54.083Z,12.55
2022-08-26T18:23:29.571Z,13.77
2022-08-26T18:26:00.745Z,13.48
2022-08-26T18:28:29.184Z,12.77
2022-08-26T18:30:59.310Z,14.37
2022-08-26T18:33:36.071Z,10.68
2022-08-26T18:36:06.583Z,9.23
2022-08-26T18:38:37.210Z,10.20
2022-08-26T18:41:04.284Z,13.48
2022-08-26T18:43:40.308Z,14.30
2022-08-26T18:46:09.722Z,11.07
2022-08-26T18:48:49.098Z,9.85
2022-08-26T18:51:36.653Z,14.02
2022-08-26T18:54:32.454Z,10.38
2022-08-26T18:57:02.105Z,12.90
2022-08-26T18:59:35.050Z,15.60
2022-08-26T19:02:06.746Z,12.40
2022-08-26T19:04:38.117Z,12.85
2022-08-26T19:19:47.751Z,10.50
2022-08-26T19:22:27.337Z,9.82
2022-08-26T19:25:00.547Z,9.88
2022-08-26T19:27:33.208Z,10.52
2022-08-26T19:30:09.154Z,9.75
2022-08-26T19:32:37.246Z,12.45
2022-08-26T19:35:08.471Z,9.35
2022-08-26T19:38:00.724Z,16.35
2022-08-26T19:40:31.584Z,16.90
2022-08-26T19:45:56.775Z,14.20
2022-08-26T19:51:30.259Z,14.07
2022-08-26T19:57:09.616Z,13.05
2022-08-26T19:59:39.649Z,12.40
2022-08-26T20:02:17.412Z,12.30
2022-08-26T20:04:45.019Z,11.88
2022-08-26T20:07:22.135Z,10.55
2022-08-26T20:09:50.122Z,12.77
2022-08-26T20:12:19.636Z,11.63
2022-08-26T20:14:46.358Z,13.52
2022-08-26T20:17:16.941Z,14.23
2022-08-26T20:20:06.568Z,19.40
2022-08-26T20:22:53.921Z,16.52
2022-08-26T20:25:23.751Z,21.55
2022-08-26T20:27:55.191Z,15.98
2022-08-26T20:30:43.917Z,18.73
2022-08-26T20:33:46.130Z,17.52
2022-08-26T20:36:22.896Z,19.00
2022-08-26T20:38:54.744Z,20.98
2022-08-26T20:41:24.886Z,18.00
2022-08-26T20:43:56.109Z,21.92
2022-08-26T20:46:25.302Z,18.08
2022-08-26T20:48:55.527Z,16.38
2022-08-26T20:51:28.585Z,18.45
2022-08-26T20:54:00.771Z,21.02
2022-08-26T20:56:35.876Z,22.10
2022-08-26T20:59:06.154Z,24.38
2022-08-26T21:01:42.073Z,22.80
2022-08-26T21:04:14.178Z,20.48
2022-08-26T21:06:52.094Z,20.17
2022-08-26T21:09:26.704Z,18.85
2022-08-26T21:11:56.495Z,26.52
2022-08-26T21:14:26.171Z,22.98
2022-08-26T21:16:53.660Z,20.38
2022-08-26T21:19:22.477Z,20.88
2022-08-26T21:21:50.546Z,23.48
2022-08-26T21:24:23.722Z,21.80
2022-08-26T21:26:50.480Z,25.80
2022-08-26T21:29:21.311Z,23.25
2022-08-26T21:32:18.302Z,24.77
2022-08-26T21:34:46.390Z,24.10
2022-08-26T21:37:39.278Z,24.80
2022-08-26T21:40:13.598Z,24.23
2022-08-26T21:42:43.499Z,24.95
2022-08-26T21:45:11.683Z,23.67
2022-08-26T21:47:41.037Z,28.35
2022-08-26T21:50:10.612Z,32.15
2022-08-26T21:52:38.178Z,42.08
2022-08-26T21:55:08.992Z,43.85
2022-08-26T21:57:40.097Z,36.50
2022-08-26T22:00:08.781Z,47.67
2022-08-26T22:02:37.774Z,40.70
2022-08-26T22:05:07.041Z,38.17
2022-08-26T22:07:36.069Z,47.55
2022-08-26T22:10:08.508Z,17.95
2022-08-26T22:12:35.382Z,20.85
2022-08-26T22:15:03.125Z,11.02
2022-08-26T22:17:29.946Z,8.60
2022-08-26T22:20:05.101Z,7.75
2022-08-26T22:22:38.978Z,7.30
2022-08-26T22:25:06.040Z,16.23
2022-08-26T22:27:34.092Z,9.02
2022-08-26T22:30:11.720Z,11.50
2022-08-26T22:32:43.195Z,13.35
2022-08-26T22:35:29.387Z,10.52
2022-08-26T22:37:58.914Z,10.60
2022-08-26T22:40:28.054Z,9.85
2022-08-26T22:43:00.454Z,12.38
2022-08-26T22:45:31.319Z,12.20
2022-08-26T22:48:03.821Z,14.30
2022-08-26T22:53:00.361Z,16.25
2022-08-26T22:55:27.088Z,11.85
2022-08-26T22:57:53.767Z,17.15
2022-08-26T23:00:32.180Z,16.45
2022-08-26T23:03:04.065Z,14.20
2022-08-26T23:05:34.073Z,19.53
2022-08-26T23:08:01.498Z,24.52
2022-08-26T23:10:31.781Z,25.60
2022-08-26T23:12:59.380Z,26.73
2022-08-26T23:15:28.622Z,26.40
2022-08-26T23:17:58.420Z,49.08
2022-08-26T23:20:28.091Z,54.53
2022-08-26T23:22:57.874Z,61.63
2022-08-26T23:25:29.017Z,64.53
2022-08-26T23:27:55.839Z,76.55
2022-08-26T23:30:29.055Z,74.47
2022-08-26T23:33:04.632Z,78.10
2022-08-26T23:35:37.304Z,72.53
2022-08-26T23:38:09.276Z,63.25
2022-08-26T23:40:39.910Z,63.70
2022-08-26T23:43:20.252Z,55.80
2022-08-26T23:45:47.005Z,50.22
2022-08-26T23:48:13.855Z,51.03
2022-08-26T23:51:02.740Z,48.30
2022-08-26T23:53:31.626Z,44.78
2022-08-26T23:55:58.854Z,33.97
2022-08-26T23:58:28.845Z,21.65
